createdAt,value
2023-12-30T00:06:50.547Z,2.87
2023-12-30T00:16:50.512Z,2.29
2023-12-30T00:26:55.883Z,2.65
2023-12-30T00:36:50.880Z,2.86
2023-12-30T00:46:51.158Z,2.24
2023-12-30T00:56:51.121Z,2.24
2023-12-30T01:06:51.413Z,2.29
2023-12-30T01:16:51.393Z,2.29
2023-12-30T01:26:57.705Z,2.86
2023-12-30T01:36:51.704Z,2.24
2023-12-30T01:46:51.997Z,3.06
2023-12-30T01:56:51.965Z,2.68
2023-12-30T02:06:52.422Z,2.10
2023-12-30T02:16:52.333Z,2.86
2023-12-30T02:26:52.683Z,3.42
2023-12-30T02:36:52.695Z,3.06
2023-12-30T02:46:52.958Z,3.60
2023-12-30T02:56:52.966Z,2.68
2023-12-30T03:06:53.297Z,2.68
2023-12-30T03:16:53.256Z,2.87
2023-12-30T03:26:53.550Z,2.68
2023-12-30T03:36:53.558Z,2.87
2023-12-30T03:46:53.955Z,2.68
2023-12-30T03:56:53.944Z,2.68
2023-12-30T04:06:54.360Z,2.68
2023-12-30T04:16:54.313Z,2.49
2023-12-30T04:26:54.620Z,2.87
2023-12-30T04:36:54.643Z,2.87
2023-12-30T04:46:55.866Z,2.87
2023-12-30T04:56:55.049Z,2.09
2023-12-30T05:06:55.541Z,2.09
2023-12-30T05:16:55.279Z,2.09
2023-12-30T05:26:55.533Z,1.90
2023-12-30T05:36:55.752Z,1.71
2023-12-30T05:46:56.007Z,1.71
2023-12-30T05:56:56.104Z,2.09
2023-12-30T06:06:56.148Z,2.81
2023-12-30T06:16:56.322Z,2.45
2023-12-30T06:26:56.614Z,2.45
2023-12-30T06:36:58.918Z,2.09
2023-12-30T06:46:56.685Z,2.63
2023-12-30T06:56:56.967Z,2.27
2023-12-30T07:06:56.967Z,1.83
2023-12-30T07:16:57.265Z,2.01
2023-12-30T07:26:59.457Z,1.83
2023-12-30T07:36:58.544Z,1.83
2023-12-30T07:46:57.700Z,1.66
2023-12-30T07:56:57.998Z,1.66
2023-12-30T08:06:58.011Z,1.48
2023-12-30T08:16:58.254Z,2.45
2023-12-30T08:26:58.431Z,2.09
2023-12-30T08:36:58.755Z,1.71
2023-12-30T08:46:58.759Z,1.90
2023-12-30T08:56:58.998Z,1.71
2023-12-30T09:06:59.198Z,2.29
2023-12-30T09:17:00.377Z,1.90
2023-12-30T09:26:59.542Z,2.65
2023-12-30T09:36:59.773Z,2.45
2023-12-30T09:46:59.904Z,2.98
2023-12-30T09:57:00.214Z,2.55
2023-12-30T10:07:01.972Z,2.33
2023-12-30T10:17:01.290Z,3.27
2023-12-30T10:27:00.691Z,3.27
2023-12-30T10:37:00.791Z,2.35
2023-12-30T10:47:00.926Z,1.86
2023-12-30T10:57:01.205Z,2.11
2023-12-30T11:07:01.205Z,2.55
2023-12-30T11:17:01.397Z,2.30
2023-12-30T11:27:01.564Z,2.55
2023-12-30T11:37:01.813Z,2.80
2023-12-30T11:47:01.973Z,3.90
2023-12-30T11:57:02.346Z,2.97
2023-12-30T12:07:02.356Z,2.71
2023-12-30T12:17:02.596Z,2.71
2023-12-30T12:27:02.800Z,2.97
2023-12-30T12:37:03.164Z,3.63
2023-12-30T12:47:03.125Z,2.81
2023-12-30T12:57:03.357Z,2.81
2023-12-30T13:07:03.585Z,3.44
2023-12-30T13:17:06.882Z,3.15
2023-12-30T13:27:08.347Z,4.29
2023-12-30T13:37:04.180Z,3.63
2023-12-30T13:47:04.148Z,3.90
2023-12-30T13:57:04.350Z,3.23
2023-12-30T14:07:05.811Z,3.74
2023-12-30T14:17:04.592Z,3.29
2023-12-30T14:27:04.911Z,3.53
2023-12-30T14:37:04.978Z,3.99
2023-12-30T14:47:05.196Z,3.05
2023-12-30T14:57:05.435Z,3.05
2023-12-30T15:07:05.663Z,3.27
2023-12-30T15:17:05.804Z,3.72
2023-12-30T15:27:06.018Z,3.40
2023-12-30T15:37:06.213Z,3.61
2023-12-30T15:47:06.532Z,2.86
2023-12-30T15:57:06.531Z,3.06
2023-12-30T16:07:06.780Z,3.45
2023-12-30T16:17:06.731Z,2.49
2023-12-30T16:27:07.443Z,2.29
2023-12-30T16:37:07.600Z,2.49
2023-12-30T16:47:10.806Z,2.49
2023-12-30T16:57:07.564Z,1.90
2023-12-30T17:07:07.914Z,2.45
2023-12-30T17:17:07.726Z,2.45
2023-12-30T17:27:08.155Z,2.45
2023-12-30T17:37:08.190Z,1.83
2023-12-30T17:47:08.485Z,2.01
2023-12-30T17:57:08.537Z,2.45
2023-12-30T18:07:08.949Z,1.71
2023-12-30T18:17:09.117Z,2.29
2023-12-30T18:27:09.343Z,1.33
2023-12-30T18:37:09.414Z,1.71
2023-12-30T18:47:09.826Z,1.52
2023-12-30T18:57:09.843Z,1.71
2023-12-30T19:07:10.508Z,1.90
2023-12-30T19:17:10.327Z,1.52
2023-12-30T19:27:10.273Z,1.52
2023-12-30T19:37:10.392Z,1.52
2023-12-30T19:47:10.670Z,1.52
2023-12-30T19:57:10.730Z,0.94
2023-12-30T20:07:11.075Z,1.33
2023-12-30T20:17:11.022Z,0.74
2023-12-30T20:27:11.511Z,0.94
2023-12-30T20:37:11.617Z,0.94
2023-12-30T20:47:13.485Z,0.74
2023-12-30T20:57:11.933Z,0.74
2023-12-30T21:07:11.954Z,0.74
2023-12-30T21:17:11.929Z,0.54
2023-12-30T21:27:12.172Z,0.54
2023-12-30T21:37:12.371Z,0.54
2023-12-30T21:47:12.632Z,0.74
2023-12-30T21:57:12.624Z,0.74
2023-12-30T22:07:12.912Z,0.54
2023-12-30T22:17:13.062Z,0.74
2023-12-30T22:27:13.293Z,0.54
2023-12-30T22:37:13.509Z,0.93
2023-12-30T22:47:13.765Z,0.86
2023-12-30T22:57:13.922Z,0.39
2023-12-30T23:07:14.137Z,0.56
2023-12-30T23:17:14.305Z,0.89
2023-12-30T23:27:14.499Z,0.89
2023-12-30T23:37:14.700Z,-0.10
2023-12-30T23:47:14.963Z,0.06
2023-12-30T23:57:14.934Z,0.06
